Time;durP1;ratioP1;P1;durP2;ratioP2;P2;SDS_P1;SDS_P2;PMS_P1;PMS_P2;Temp;Humidity;BMP_temperature;BMP_pressure;BME280_temperature;BME280_humidity;BME280_pressure;Samples;Min_cycle;Max_cycle;Signal;HPM_P1;HPM_P2
2023/02/22 00:01:21;;;;;;;111.07;44.23;;;9.70;99.90;;;;;;5026427;28;20459;-80
2023/02/22 00:03:50;;;;;;;100.43;43.83;;;9.70;99.90;;;;;;5027457;28;20475;-80
2023/02/22 00:06:19;;;;;;;100.43;42.00;;;9.70;99.90;;;;;;5026041;28;20479;-80
2023/02/22 00:08:48;;;;;;;86.17;39.33;;;9.80;99.90;;;;;;5027064;28;20443;-80
2023/02/22 00:11:15;;;;;;;81.30;37.20;;;9.80;99.90;;;;;;5024495;28;20506;-81
2023/02/22 00:13:43;;;;;;;71.23;36.97;;;9.80;99.90;;;;;;5024341;28;20451;-80
2023/02/22 00:16:16;;;;;;;74.13;37.13;;;9.80;99.90;;;;;;5024565;28;20491;-80
2023/02/22 00:18:43;;;;;;;69.57;35.10;;;9.80;99.90;;;;;;5024316;28;20474;-80
2023/02/22 00:21:11;;;;;;;78.53;38.40;;;9.80;99.90;;;;;;5024291;28;20439;-80
2023/02/22 00:23:45;;;;;;;72.60;37.20;;;9.80;99.90;;;;;;5024286;28;20486;-80
2023/02/22 00:26:12;;;;;;;73.17;35.00;;;9.80;99.90;;;;;;5022895;28;20475;-81
2023/02/22 00:28:41;;;;;;;69.67;34.90;;;9.80;99.90;;;;;;5023397;28;20436;-81
2023/02/22 00:31:08;;;;;;;77.90;35.43;;;9.80;99.90;;;;;;5023059;28;20964;-80
2023/02/22 00:33:39;;;;;;;62.17;32.17;;;9.80;99.90;;;;;;5022403;28;20444;-80
2023/02/22 00:36:06;;;;;;;66.60;34.80;;;9.80;99.90;;;;;;5021790;28;20479;-81
2023/02/22 00:38:33;;;;;;;61.50;31.27;;;9.80;99.90;;;;;;5022530;28;20432;-80
2023/02/22 00:41:00;;;;;;;64.17;30.33;;;9.80;99.90;;;;;;5021976;28;20458;-81
2023/02/22 00:43:26;;;;;;;66.60;32.63;;;9.80;99.90;;;;;;5021803;28;20482;-80
2023/02/22 00:45:53;;;;;;;63.17;32.97;;;9.80;99.90;;;;;;5021284;28;20469;-81
2023/02/22 00:48:20;;;;;;;62.13;33.60;;;9.80;99.90;;;;;;5020781;28;20462;-80
2023/02/22 00:50:49;;;;;;;52.90;29.13;;;9.80;99.90;;;;;;5018844;28;20462;-80
2023/02/22 00:53:16;;;;;;;65.73;32.87;;;9.80;99.90;;;;;;5017885;28;20447;-80
2023/02/22 00:55:43;;;;;;;59.50;31.97;;;9.80;99.90;;;;;;5019461;28;20468;-80
2023/02/22 00:58:10;;;;;;;56.17;29.63;;;9.80;99.90;;;;;;5019250;28;20439;-80
2023/02/22 01:00:38;;;;;;;58.90;31.03;;;9.80;99.90;;;;;;5020326;28;20463;-80
2023/02/22 01:03:24;;;;;;;62.20;30.00;;;9.70;99.90;;;;;;5021945;28;20487;-81
2023/02/22 01:05:52;;;;;;;54.97;30.43;;;9.70;99.90;;;;;;5029145;28;20521;-81
2023/02/22 01:08:19;;;;;;;61.37;31.30;;;9.70;99.90;;;;;;5029188;28;20878;-81
2023/02/22 01:10:46;;;;;;;63.67;32.77;;;9.70;99.90;;;;;;5021429;28;20454;-81
2023/02/22 01:13:13;;;;;;;61.83;32.17;;;9.70;99.90;;;;;;5020679;28;20436;-80
2023/02/22 01:15:43;;;;;;;59.63;30.60;;;9.70;99.90;;;;;;5019790;28;20454;-80
2023/02/22 01:18:11;;;;;;;61.20;30.43;;;9.70;99.90;;;;;;5018304;28;20545;-80
2023/02/22 01:20:38;;;;;;;56.13;31.10;;;9.70;99.90;;;;;;5017754;28;20436;-80
2023/02/22 01:23:09;;;;;;;61.57;31.80;;;9.70;99.90;;;;;;5018359;28;20487;-80
2023/02/22 01:25:36;;;;;;;60.97;30.37;;;9.70;99.90;;;;;;5017989;28;20962;-80
2023/02/22 01:28:06;;;;;;;53.83;29.17;;;9.70;99.90;;;;;;5018221;28;20464;-81
2023/02/22 01:30:34;;;;;;;59.40;32.07;;;9.70;99.90;;;;;;5016573;28;20465;-80
2023/02/22 01:33:03;;;;;;;63.57;30.30;;;9.70;99.90;;;;;;5017568;28;20440;-80
2023/02/22 01:35:32;;;;;;;57.50;31.20;;;9.70;99.90;;;;;;5017016;28;20558;-81
2023/02/22 01:37:59;;;;;;;58.17;30.50;;;9.70;99.90;;;;;;5017182;28;20455;-81
2023/02/22 01:40:29;;;;;;;57.30;28.97;;;9.70;99.90;;;;;;5017652;28;20468;-80
2023/02/22 01:42:59;;;;;;;51.43;27.50;;;9.70;99.90;;;;;;5017464;28;20510;-80
2023/02/22 01:45:43;;;;;;;66.23;31.20;;;9.70;99.90;;;;;;5018012;28;20444;-80
2023/02/22 01:48:15;;;;;;;54.13;29.00;;;9.70;99.90;;;;;;5017015;28;20443;-81
2023/02/22 01:50:44;;;;;;;51.53;27.80;;;9.70;99.90;;;;;;5018065;28;20436;-80
2023/02/22 01:53:14;;;;;;;57.33;29.27;;;9.60;99.90;;;;;;5017255;28;20928;-80
2023/02/22 01:55:43;;;;;;;57.77;30.83;;;9.60;99.90;;;;;;5016737;28;20446;-81
2023/02/22 01:58:10;;;;;;;51.20;28.50;;;9.60;99.90;;;;;;5016896;28;20456;-80
2023/02/22 02:00:38;;;;;;;53.47;28.17;;;9.60;99.90;;;;;;5016896;28;20455;-80
2023/02/22 02:03:09;;;;;;;55.63;28.37;;;9.60;99.90;;;;;;5016783;28;20920;-80
2023/02/22 02:05:37;;;;;;;55.30;28.40;;;9.60;99.90;;;;;;5016553;28;20459;-81
2023/02/22 02:08:13;;;;;;;63.73;27.20;;;9.60;99.90;;;;;;5015920;28;20467;-81
2023/02/22 02:10:42;;;;;;;48.77;25.97;;;9.60;99.90;;;;;;5016613;28;20436;-81
2023/02/22 02:13:09;;;;;;;54.50;27.57;;;9.60;99.90;;;;;;5017026;28;20451;-81
2023/02/22 02:15:37;;;;;;;52.00;29.23;;;9.50;99.90;;;;;;5016932;28;20458;-81
2023/02/22 02:18:07;;;;;;;52.83;28.90;;;9.50;99.90;;;;;;5016604;28;20447;-80
2023/02/22 02:20:42;;;;;;;49.77;28.07;;;9.50;99.90;;;;;;5016731;28;20466;-81
2023/02/22 02:23:36;;;;;;;51.57;29.03;;;9.50;99.90;;;;;;5016397;28;20513;-80
2023/02/22 02:26:47;;;;;;;55.97;28.83;;;9.50;99.90;;;;;;5015797;28;20475;-81
2023/02/22 02:30:04;;;;;;;48.63;28.10;;;9.50;99.90;;;;;;4987562;28;20459;-80
2023/02/22 02:32:39;;;;;;;48.00;26.83;;;9.50;99.90;;;;;;4991917;28;20463;-80
2023/02/22 02:35:12;;;;;;;47.10;26.33;;;9.40;99.90;;;;;;5015517;28;20434;-81
2023/02/22 02:37:46;;;;;;;48.97;26.97;;;9.50;99.90;;;;;;5015731;28;20471;-81
2023/02/22 02:40:22;;;;;;;45.70;25.97;;;9.50;99.90;;;;;;5015895;28;20447;-81
2023/02/22 02:42:59;;;;;;;53.43;29.17;;;9.50;99.90;;;;;;5015617;28;20791;-80
2023/02/22 02:45:31;;;;;;;52.13;27.23;;;9.50;99.90;;;;;;5015693;28;20443;-80
2023/02/22 02:48:01;;;;;;;47.30;27.73;;;9.50;99.90;;;;;;5018503;28;20442;-80
2023/02/22 02:50:31;;;;;;;53.77;28.63;;;9.50;99.90;;;;;;5030239;28;20503;-81
2023/02/22 02:53:02;;;;;;;49.50;28.60;;;9.50;99.90;;;;;;5030381;28;20811;-82
2023/02/22 02:55:31;;;;;;;47.30;26.53;;;9.50;99.90;;;;;;5020351;28;20458;-81
2023/02/22 02:57:59;;;;;;;51.47;29.00;;;9.50;99.90;;;;;;5018228;28;20435;-81
2023/02/22 03:00:31;;;;;;;52.13;28.20;;;9.50;99.90;;;;;;5018431;28;20796;-80
2023/02/22 03:03:23;;;;;;;50.77;28.00;;;9.50;99.90;;;;;;5018037;28;20443;-81
2023/02/22 03:06:05;;;;;;;46.33;24.80;;;9.40;99.90;;;;;;5018159;28;20478;-81
2023/02/22 03:08:37;;;;;;;46.07;25.40;;;9.40;99.90;;;;;;5018269;28;20430;-81
2023/02/22 03:11:13;;;;;;;44.83;26.20;;;9.40;99.90;;;;;;5018056;28;20431;-81
2023/02/22 03:13:47;;;;;;;44.10;24.27;;;9.40;99.90;;;;;;5018378;28;20435;-81
2023/02/22 03:16:23;;;;;;;58.97;26.57;;;9.40;99.90;;;;;;5018540;28;20474;-81
2023/02/22 03:18:58;;;;;;;57.37;27.90;;;9.40;99.90;;;;;;5018343;28;20434;-82
2023/02/22 03:21:33;;;;;;;43.97;26.67;;;9.30;99.90;;;;;;5018652;28;20437;-81
2023/02/22 03:24:07;;;;;;;42.43;25.07;;;9.30;99.90;;;;;;5018614;28;20481;-81
2023/02/22 03:26:39;;;;;;;45.47;25.97;;;9.30;99.90;;;;;;5020605;28;20463;-81
2023/02/22 03:29:08;;;;;;;49.23;24.53;;;9.20;99.90;;;;;;5020453;28;20439;-82
2023/02/22 03:31:37;;;;;;;56.00;23.93;;;9.20;99.90;;;;;;5020341;28;20451;-81
2023/02/22 03:34:09;;;;;;;48.03;24.83;;;9.20;99.90;;;;;;5019802;28;20879;-81
2023/02/22 03:36:42;;;;;;;49.63;25.07;;;9.10;99.90;;;;;;5021335;28;20478;-82
2023/02/22 03:39:14;;;;;;;60.20;25.87;;;9.00;99.90;;;;;;5020064;28;20489;-81
2023/02/22 03:41:50;;;;;;;42.00;22.60;;;8.90;99.90;;;;;;5018974;28;20931;-81
2023/02/22 03:44:23;;;;;;;53.97;25.47;;;8.90;99.90;;;;;;5017554;28;20579;-81
2023/02/22 03:46:54;;;;;;;52.70;27.53;;;8.90;99.90;;;;;;5018219;28;20471;-81
2023/02/22 03:49:32;;;;;;;43.73;24.30;;;8.90;99.90;;;;;;5017705;28;20436;-82
2023/02/22 03:51:59;;;;;;;44.70;25.53;;;8.90;99.90;;;;;;5017618;28;20439;-81
2023/02/22 03:54:27;;;;;;;50.57;25.33;;;8.80;99.90;;;;;;5017519;28;20505;-80
2023/02/22 03:56:56;;;;;;;49.33;23.97;;;8.80;99.90;;;;;;5017302;28;20975;-80
2023/02/22 03:59:26;;;;;;;50.07;25.07;;;8.70;99.90;;;;;;5017536;28;20822;-80
2023/02/22 04:01:55;;;;;;;42.37;23.73;;;8.70;99.90;;;;;;5015757;28;20455;-81
2023/02/22 04:04:24;;;;;;;57.00;26.37;;;8.60;99.90;;;;;;5017470;28;20950;-81
2023/02/22 04:06:52;;;;;;;49.93;23.90;;;8.60;99.90;;;;;;5017614;28;20483;-80
2023/02/22 04:09:20;;;;;;;44.87;24.10;;;8.60;99.90;;;;;;5018147;28;20451;-81
2023/02/22 04:11:47;;;;;;;55.13;23.70;;;8.60;99.90;;;;;;5017738;28;20451;-81
2023/02/22 04:14:14;;;;;;;42.13;22.90;;;8.60;99.90;;;;;;5017185;28;20447;-81
2023/02/22 04:16:40;;;;;;;47.13;24.20;;;8.60;99.90;;;;;;5017423;28;20479;-81
2023/02/22 04:19:07;;;;;;;47.90;24.47;;;8.60;99.90;;;;;;5018162;28;20416;-81
2023/02/22 04:21:35;;;;;;;38.90;24.37;;;8.60;99.90;;;;;;5016870;28;20451;-81
2023/02/22 04:24:02;;;;;;;45.40;24.43;;;8.50;99.90;;;;;;5016477;28;20494;-81
2023/02/22 04:26:29;;;;;;;40.17;22.10;;;8.50;99.90;;;;;;5016452;28;20467;-81
2023/02/22 04:29:00;;;;;;;43.50;24.17;;;8.50;99.90;;;;;;5018913;28;20440;-81
2023/02/22 04:31:26;;;;;;;46.90;24.20;;;8.50;99.90;;;;;;5032025;28;20771;-81
2023/02/22 04:33:53;;;;;;;44.97;24.47;;;8.50;99.90;;;;;;5032431;28;20408;-81
2023/02/22 04:36:20;;;;;;;46.17;25.17;;;8.50;99.90;;;;;;5025024;28;20463;-82
2023/02/22 04:38:48;;;;;;;49.70;27.03;;;8.60;99.90;;;;;;5024520;28;20449;-81
2023/02/22 04:41:17;;;;;;;48.93;26.00;;;8.50;99.90;;;;;;5024474;28;20447;-81
2023/02/22 04:43:44;;;;;;;43.67;23.30;;;8.50;99.90;;;;;;5024311;28;20459;-81
2023/02/22 04:46:11;;;;;;;45.27;23.93;;;8.60;99.90;;;;;;5021090;28;20467;-81
2023/02/22 04:48:40;;;;;;;51.73;25.90;;;8.50;99.90;;;;;;5023535;28;20482;-81
2023/02/22 04:51:07;;;;;;;38.10;23.63;;;8.60;99.90;;;;;;5024231;28;20451;-82
2023/02/22 04:53:34;;;;;;;47.20;25.03;;;8.50;99.90;;;;;;5024070;28;20458;-81
2023/02/22 04:56:02;;;;;;;43.07;25.17;;;8.50;99.90;;;;;;5023605;28;20545;-80
2023/02/22 04:58:30;;;;;;;42.90;23.60;;;8.60;99.90;;;;;;5024320;28;20867;-80
2023/02/22 05:00:57;;;;;;;43.90;24.27;;;8.50;99.90;;;;;;5024057;28;20459;-80
2023/02/22 05:03:25;;;;;;;50.40;23.67;;;8.60;99.90;;;;;;5023392;28;20447;-80
2023/02/22 05:05:52;;;;;;;41.00;24.30;;;8.60;99.90;;;;;;5023562;28;21007;-81
2023/02/22 05:08:19;;;;;;;42.87;24.27;;;8.60;99.90;;;;;;5024562;28;20466;-81
2023/02/22 05:10:46;;;;;;;44.33;23.93;;;8.60;99.90;;;;;;5024895;28;20458;-80
2023/02/22 05:13:14;;;;;;;40.97;22.60;;;8.70;99.90;;;;;;5022214;28;20458;-80
2023/02/22 05:15:40;;;;;;;40.00;22.67;;;8.70;99.90;;;;;;5023794;28;20435;-81
2023/02/22 05:18:07;;;;;;;38.70;23.80;;;8.70;99.90;;;;;;5023045;28;20482;-81
2023/02/22 05:20:35;;;;;;;42.50;23.07;;;8.60;99.90;;;;;;5023859;28;20451;-80
2023/02/22 05:23:04;;;;;;;42.77;24.33;;;8.50;99.90;;;;;;5022540;28;20436;-80
2023/02/22 05:25:32;;;;;;;39.30;23.60;;;8.50;99.90;;;;;;5023492;28;20487;-80
2023/02/22 05:28:12;;;;;;;38.37;24.30;;;8.50;99.90;;;;;;5022331;28;20913;-80
2023/02/22 05:30:41;;;;;;;40.57;23.93;;;8.40;99.90;;;;;;5021471;28;20432;-81
2023/02/22 05:33:08;;;;;;;42.53;23.73;;;8.40;99.90;;;;;;5020752;28;20818;-80
2023/02/22 05:35:36;;;;;;;37.27;21.50;;;8.30;99.90;;;;;;5021243;28;20452;-82
2023/02/22 05:38:03;;;;;;;44.03;23.40;;;8.30;99.90;;;;;;5021482;28;20459;-80
2023/02/22 05:40:31;;;;;;;40.40;23.07;;;8.30;99.90;;;;;;5021621;28;20427;-81
2023/02/22 05:42:58;;;;;;;39.80;22.90;;;8.30;99.90;;;;;;5020540;28;20428;-81
2023/02/22 05:45:26;;;;;;;40.20;23.60;;;8.30;99.90;;;;;;5020487;28;20494;-81
2023/02/22 05:47:55;;;;;;;43.00;23.50;;;8.30;99.90;;;;;;5020134;28;20483;-81
2023/02/22 05:50:23;;;;;;;35.70;22.87;;;8.30;99.90;;;;;;5020037;28;20977;-81
2023/02/22 05:52:56;;;;;;;42.87;23.60;;;8.30;99.90;;;;;;5019871;28;20817;-80
2023/02/22 05:55:25;;;;;;;37.90;23.27;;;8.40;99.90;;;;;;5021262;28;20443;-80
2023/02/22 05:57:53;;;;;;;39.97;25.33;;;8.40;99.90;;;;;;5018395;28;20443;-80
2023/02/22 06:00:26;;;;;;;37.67;23.70;;;8.40;99.90;;;;;;5021001;28;20943;-80
2023/02/22 06:02:59;;;;;;;39.37;22.13;;;8.40;99.90;;;;;;5019947;28;20439;-80
2023/02/22 06:05:27;;;;;;;39.50;24.13;;;8.50;99.90;;;;;;5019075;28;20483;-80
2023/02/22 06:07:59;;;;;;;33.30;21.90;;;8.50;99.90;;;;;;5018023;28;20459;-80
2023/02/22 06:10:28;;;;;;;37.40;22.53;;;8.50;99.90;;;;;;5018188;28;20482;-80
2023/02/22 06:12:55;;;;;;;37.13;23.97;;;8.50;99.90;;;;;;5016609;28;20449;-80
2023/02/22 06:15:26;;;;;;;43.37;24.20;;;8.60;99.90;;;;;;5016670;28;20428;-80
2023/02/22 06:17:54;;;;;;;43.70;24.87;;;8.60;99.90;;;;;;5016991;28;20435;-80
2023/02/22 06:20:25;;;;;;;36.50;22.27;;;8.60;99.90;;;;;;5016453;28;20447;-80
2023/02/22 06:22:53;;;;;;;41.30;23.17;;;8.60;99.90;;;;;;5015729;28;20443;-80
2023/02/22 06:25:22;;;;;;;40.03;24.03;;;8.60;99.90;;;;;;5015329;28;20870;-80
2023/02/22 06:27:49;;;;;;;41.80;23.77;;;8.60;99.90;;;;;;5015503;28;20462;-80
2023/02/22 06:30:19;;;;;;;44.27;24.67;;;8.60;99.90;;;;;;5015553;28;20450;-81
2023/02/22 06:32:45;;;;;;;41.83;25.80;;;8.60;99.90;;;;;;5014550;28;20976;-80
2023/02/22 06:35:12;;;;;;;47.27;23.93;;;8.60;99.90;;;;;;5016036;28;20443;-80
2023/02/22 06:37:41;;;;;;;47.60;26.33;;;8.60;99.90;;;;;;5015711;28;20499;-80
2023/02/22 06:40:10;;;;;;;44.30;24.20;;;8.60;99.90;;;;;;5016248;28;20458;-80
2023/02/22 06:42:36;;;;;;;49.13;26.33;;;8.60;99.90;;;;;;5015716;28;20448;-80
2023/02/22 06:45:04;;;;;;;49.83;26.67;;;8.60;99.90;;;;;;5017658;28;20498;-80
2023/02/22 06:47:30;;;;;;;49.47;26.50;;;8.60;99.90;;;;;;5015662;28;20471;-80
2023/02/22 06:49:59;;;;;;;48.87;25.07;;;8.60;99.90;;;;;;5018786;28;20952;-80
2023/02/22 06:52:26;;;;;;;46.10;26.20;;;8.60;99.90;;;;;;5019200;28;20518;-80
2023/02/22 06:54:57;;;;;;;40.93;24.03;;;8.60;99.90;;;;;;5020756;28;20460;-80
2023/02/22 06:57:23;;;;;;;38.37;23.80;;;8.60;99.90;;;;;;5020168;28;21002;-81
2023/02/22 06:59:51;;;;;;;36.23;22.77;;;8.60;99.90;;;;;;5019096;28;20892;-80
2023/02/22 07:02:20;;;;;;;40.87;24.63;;;8.60;99.90;;;;;;5018131;28;20459;-79
2023/02/22 07:04:47;;;;;;;39.80;24.60;;;8.60;99.90;;;;;;5015863;28;20480;-80
2023/02/22 07:07:13;;;;;;;44.87;25.00;;;8.60;99.90;;;;;;5014013;28;20487;-80
2023/02/22 07:09:40;;;;;;;47.97;26.27;;;8.60;99.90;;;;;;5014316;28;20466;-81
2023/02/22 07:12:08;;;;;;;42.33;23.30;;;8.70;99.90;;;;;;5014931;28;20459;-80
2023/02/22 07:14:35;;;;;;;40.00;24.63;;;8.70;99.90;;;;;;5015939;28;20447;-80
2023/02/22 07:17:04;;;;;;;37.87;21.97;;;8.70;99.90;;;;;;5017017;28;20478;-80
2023/02/22 07:19:30;;;;;;;41.43;24.13;;;8.70;99.90;;;;;;5024685;28;20439;-80
2023/02/22 07:21:58;;;;;;;37.83;22.70;;;8.80;99.90;;;;;;5027927;28;20447;-81
2023/02/22 07:24:27;;;;;;;49.63;24.07;;;8.80;99.90;;;;;;5018544;28;20469;-80
2023/02/22 07:26:53;;;;;;;53.67;25.57;;;8.80;99.90;;;;;;5016139;28;20976;-81
2023/02/22 07:29:22;;;;;;;45.60;25.50;;;8.90;99.90;;;;;;5015777;28;20443;-80
2023/02/22 07:31:49;;;;;;;42.10;25.17;;;8.90;99.90;;;;;;5015228;28;20447;-80
2023/02/22 07:34:15;;;;;;;40.33;24.10;;;8.90;99.90;;;;;;5014997;28;20482;-81
2023/02/22 07:36:42;;;;;;;42.90;25.70;;;8.90;99.90;;;;;;5017641;28;20497;-81
2023/02/22 07:39:09;;;;;;;37.77;23.00;;;9.00;99.90;;;;;;5018258;28;20974;-80
2023/02/22 07:41:36;;;;;;;40.00;24.87;;;9.00;99.90;;;;;;5018405;28;20824;-80
2023/02/22 07:44:05;;;;;;;41.17;22.27;;;9.10;99.90;;;;;;5018457;28;20448;-80
2023/02/22 07:46:33;;;;;;;38.27;22.47;;;9.10;99.90;;;;;;5017974;28;20495;-81
2023/02/22 07:49:00;;;;;;;36.70;22.07;;;9.20;99.90;;;;;;5018982;28;20509;-81
2023/02/22 07:51:27;;;;;;;39.03;23.47;;;9.20;99.90;;;;;;5019202;28;20446;-81
2023/02/22 07:53:54;;;;;;;33.70;21.90;;;9.30;99.90;;;;;;5019158;28;20462;-81
2023/02/22 07:56:20;;;;;;;37.97;22.87;;;9.30;99.90;;;;;;5019124;28;20987;-81
2023/02/22 07:58:49;;;;;;;38.07;22.60;;;9.40;99.90;;;;;;5018620;28;20462;-80
2023/02/22 08:01:16;;;;;;;35.60;23.60;;;9.40;99.90;;;;;;5018526;28;20447;-80
2023/02/22 08:03:46;;;;;;;35.10;24.33;;;9.50;99.90;;;;;;5019475;28;20447;-80
2023/02/22 08:06:13;;;;;;;34.43;22.60;;;9.60;99.90;;;;;;5018609;28;20479;-81
2023/02/22 08:08:40;;;;;;;27.87;18.90;;;9.60;99.90;;;;;;5019155;28;20443;-81
2023/02/22 08:11:06;;;;;;;31.60;20.60;;;9.70;99.90;;;;;;5018782;28;20451;-81
2023/02/22 08:13:35;;;;;;;29.23;19.70;;;9.70;99.90;;;;;;5018609;28;20454;-80
2023/02/22 08:16:03;;;;;;;30.50;19.70;;;9.80;99.90;;;;;;5018680;28;20582;-81
2023/02/22 08:18:30;;;;;;;29.43;18.87;;;9.90;99.90;;;;;;5017751;28;20451;-81
2023/02/22 08:20:58;;;;;;;32.53;20.40;;;10.00;99.90;;;;;;5016866;28;20459;-80
2023/02/22 08:23:25;;;;;;;29.03;20.10;;;10.00;99.90;;;;;;5017308;28;20462;-80
2023/02/22 08:25:53;;;;;;;34.57;20.03;;;10.10;99.90;;;;;;5016928;28;20498;-81
2023/02/22 08:28:22;;;;;;;35.37;20.90;;;10.10;99.90;;;;;;5016471;28;20443;-81
2023/02/22 08:30:49;;;;;;;31.10;20.97;;;10.20;99.90;;;;;;5017366;28;20447;-80
2023/02/22 08:33:18;;;;;;;29.70;19.90;;;10.30;99.90;;;;;;5017131;28;20463;-80
2023/02/22 08:35:45;;;;;;;33.47;19.97;;;10.30;99.90;;;;;;5017042;28;20468;-81
2023/02/22 08:38:18;;;;;;;30.07;20.77;;;10.40;99.90;;;;;;5016752;28;20468;-80
2023/02/22 08:40:45;;;;;;;33.80;20.83;;;10.50;99.90;;;;;;5017501;28;20451;-81
2023/02/22 08:43:12;;;;;;;33.33;19.53;;;10.50;99.90;;;;;;5016643;28;20486;-80
2023/02/22 08:45:39;;;;;;;32.13;21.80;;;10.60;99.90;;;;;;5016711;28;20487;-80
2023/02/22 08:48:06;;;;;;;27.00;19.13;;;10.70;99.90;;;;;;5016082;28;20458;-81
2023/02/22 08:50:34;;;;;;;32.73;20.40;;;10.80;99.90;;;;;;5017103;28;20816;-81
2023/02/22 08:53:02;;;;;;;27.70;19.03;;;10.80;99.90;;;;;;5016210;28;20455;-81
2023/02/22 08:55:32;;;;;;;31.97;20.67;;;10.80;99.90;;;;;;5016682;28;20626;-81
2023/02/22 08:58:02;;;;;;;34.60;20.47;;;10.90;99.90;;;;;;5016882;28;20546;-80
2023/02/22 09:00:31;;;;;;;31.37;19.90;;;11.00;99.90;;;;;;5016591;28;20522;-80
2023/02/22 09:02:59;;;;;;;30.57;21.17;;;11.00;99.90;;;;;;5018306;28;20459;-80
2023/02/22 09:05:26;;;;;;;29.23;20.13;;;11.10;99.90;;;;;;5028422;28;20487;-81
2023/02/22 09:07:52;;;;;;;30.20;20.13;;;11.10;99.90;;;;;;5025175;28;20462;-81
2023/02/22 09:10:23;;;;;;;27.80;20.27;;;11.20;99.90;;;;;;5020088;28;20459;-80
2023/02/22 09:12:51;;;;;;;26.70;17.77;;;11.30;99.90;;;;;;5015743;28;20545;-80
2023/02/22 09:15:19;;;;;;;27.50;19.30;;;11.30;99.90;;;;;;5015779;28;20455;-80
2023/02/22 09:17:46;;;;;;;27.50;19.43;;;11.30;99.90;;;;;;5015404;28;20475;-81
2023/02/22 09:20:14;;;;;;;30.13;18.80;;;11.30;99.90;;;;;;5015898;28;20466;-80
2023/02/22 09:22:41;;;;;;;27.23;19.33;;;11.40;99.90;;;;;;5015571;28;20455;-80
2023/02/22 09:25:08;;;;;;;26.83;19.60;;;11.50;99.90;;;;;;5015644;28;20487;-81
2023/02/22 09:27:35;;;;;;;30.00;18.00;;;11.60;99.90;;;;;;5015309;28;20479;-81
2023/02/22 09:30:03;;;;;;;30.43;19.43;;;11.60;99.90;;;;;;5015389;28;20452;-81
2023/02/22 09:32:30;;;;;;;27.60;18.87;;;11.70;99.90;;;;;;5015814;28;20451;-81
2023/02/22 09:34:56;;;;;;;22.70;17.13;;;11.80;99.90;;;;;;5015607;28;20462;-81
2023/02/22 09:37:23;;;;;;;23.07;17.47;;;11.90;99.90;;;;;;5016216;28;20475;-81
2023/02/22 09:39:51;;;;;;;26.50;17.00;;;11.90;99.90;;;;;;5015848;28;20971;-81
2023/02/22 09:42:27;;;;;;;25.50;18.43;;;11.90;99.90;;;;;;5015978;28;20871;-80
2023/02/22 09:45:02;;;;;;;22.87;17.20;;;12.00;99.90;;;;;;5016197;28;20439;-80
2023/02/22 09:47:39;;;;;;;24.63;17.10;;;12.10;99.90;;;;;;5015819;28;20826;-81
2023/02/22 09:50:14;;;;;;;24.50;17.87;;;12.20;99.90;;;;;;5015636;28;20435;-81
2023/02/22 09:52:48;;;;;;;21.43;15.90;;;12.30;99.90;;;;;;5015871;28;20526;-80
2023/02/22 09:55:27;;;;;;;22.93;17.27;;;12.40;99.90;;;;;;5015385;28;20447;-80
2023/02/22 09:57:57;;;;;;;24.77;17.03;;;12.50;99.90;;;;;;5014904;28;20501;-80
2023/02/22 10:00:31;;;;;;;27.77;18.63;;;12.60;99.90;;;;;;5014531;28;20947;-81
2023/02/22 10:03:10;;;;;;;25.83;18.27;;;12.70;99.90;;;;;;5014841;28;20436;-80
2023/02/22 10:05:40;;;;;;;23.07;17.30;;;12.80;99.90;;;;;;5014651;28;20475;-80
2023/02/22 10:08:12;;;;;;;25.33;17.40;;;13.00;99.70;;;;;;5014804;28;20467;-81
2023/02/22 10:10:44;;;;;;;25.60;19.17;;;13.10;99.60;;;;;;5014862;28;20956;-81
2023/02/22 10:13:22;;;;;;;25.37;18.03;;;13.30;99.40;;;;;;5014770;28;20471;-80
2023/02/22 10:15:54;;;;;;;38.33;17.50;;;13.40;99.30;;;;;;5014249;28;20486;-80
2023/02/22 10:18:50;;;;;;;24.27;17.00;;;13.60;99.10;;;;;;5014763;28;20952;-81
2023/02/22 10:21:32;;;;;;;25.53;17.97;;;13.80;98.40;;;;;;5001891;28;20954;-80
2023/02/22 10:24:06;;;;;;;26.43;18.43;;;13.90;97.80;;;;;;5022047;28;20506;-80
2023/02/22 10:26:37;;;;;;;26.23;19.93;;;14.10;97.70;;;;;;5022852;28;20487;-81
2023/02/22 10:29:10;;;;;;;24.20;17.60;;;14.30;97.50;;;;;;5022854;28;20442;-80
2023/02/22 10:31:42;;;;;;;28.70;18.40;;;14.50;97.10;;;;;;5022659;28;20436;-80
2023/02/22 10:34:14;;;;;;;21.07;16.17;;;14.70;96.80;;;;;;5022869;28;20436;-80
2023/02/22 10:36:43;;;;;;;22.30;16.90;;;14.90;96.40;;;;;;5020140;28;20467;-81
2023/02/22 10:39:20;;;;;;;24.23;17.03;;;15.10;95.50;;;;;;5014010;28;20482;-81
2023/02/22 10:41:53;;;;;;;22.47;16.57;;;15.30;95.10;;;;;;5013989;28;20963;-80
2023/02/22 10:44:19;;;;;;;25.37;17.30;;;15.60;94.40;;;;;;5014140;28;20494;-80
2023/02/22 10:46:47;;;;;;;22.00;15.17;;;16.00;93.70;;;;;;5013965;28;20502;-81
2023/02/22 10:49:20;;;;;;;19.57;15.67;;;16.30;92.30;;;;;;5014276;28;20501;-81
2023/02/22 10:51:49;;;;;;;22.23;15.13;;;16.70;91.40;;;;;;5014384;28;20444;-80
2023/02/22 10:54:25;;;;;;;23.47;16.23;;;17.20;90.70;;;;;;5014161;28;20454;-80
2023/02/22 10:56:54;;;;;;;18.43;14.57;;;17.60;89.10;;;;;;5014252;28;20471;-79
2023/02/22 10:59:31;;;;;;;21.20;15.00;;;17.90;86.00;;;;;;5013831;28;20440;-80
2023/02/22 11:01:59;;;;;;;17.10;13.67;;;18.20;84.10;;;;;;5014447;28;20514;-80
2023/02/22 11:04:27;;;;;;;18.47;14.27;;;18.40;82.40;;;;;;5014113;28;20952;-80
2023/02/22 11:07:22;;;;;;;16.40;14.40;;;18.80;81.00;;;;;;5013438;28;20625;-79
2023/02/22 11:09:52;;;;;;;17.93;14.73;;;19.10;78.00;;;;;;5013675;28;20920;-79
2023/02/22 11:12:26;;;;;;;18.00;14.13;;;19.40;76.30;;;;;;5017522;28;20546;-79
2023/02/22 11:14:54;;;;;;;17.93;13.83;;;19.70;75.20;;;;;;5018464;28;20439;-80
2023/02/22 11:17:29;;;;;;;18.23;13.70;;;19.90;73.40;;;;;;5017822;28;20474;-79
2023/02/22 11:19:59;;;;;;;20.63;13.00;;;20.10;71.70;;;;;;5017666;28;20516;-78
2023/02/22 11:22:29;;;;;;;15.50;13.20;;;20.20;70.50;;;;;;5017673;28;20479;-78
2023/02/22 11:25:00;;;;;;;20.87;14.27;;;20.40;69.00;;;;;;5017527;28;20438;-78
2023/02/22 11:27:36;;;;;;;14.70;12.77;;;20.40;64.70;;;;;;5017854;28;20522;-81
2023/02/22 11:30:29;;;;;;;16.80;12.73;;;20.60;66.10;;;;;;5017876;28;20478;-78
2023/02/22 11:32:58;;;;;;;16.50;13.47;;;20.80;64.10;;;;;;5007671;28;20451;-78
2023/02/22 11:35:51;;;;;;;18.23;14.17;;;21.10;63.40;;;;;;5017425;28;20450;-79
2023/02/22 11:38:20;;;;;;;15.73;12.73;;;21.20;58.90;;;;;;5017448;28;21035;-79
2023/02/22 11:41:06;;;;;;;15.73;11.90;;;21.30;59.30;;;;;;5017730;28;20863;-79
2023/02/22 11:43:33;;;;;;;17.43;11.97;;;21.60;59.30;;;;;;5016857;28;20447;-79
2023/02/22 11:46:03;;;;;;;14.90;12.50;;;21.90;58.50;;;;;;5017204;28;20975;-79
2023/02/22 11:48:35;;;;;;;15.50;11.73;;;22.20;57.50;;;;;;5017629;28;20446;-79
2023/02/22 11:51:28;;;;;;;16.70;12.20;;;22.60;57.10;;;;;;5017745;28;20499;-78
2023/02/22 11:54:12;;;;;;;18.00;12.50;;;22.90;53.50;;;;;;5018785;28;20462;-78
2023/02/22 11:56:42;;;;;;;12.43;11.10;;;23.10;54.10;;;;;;5018218;28;20808;-80
2023/02/22 11:59:24;;;;;;;13.30;11.20;;;23.40;54.10;;;;;;5018088;28;20534;-80
2023/02/22 12:01:55;;;;;;;12.70;10.07;;;23.60;53.90;;;;;;5018041;28;20920;-79
2023/02/22 12:04:49;;;;;;;14.50;11.23;;;23.80;52.40;;;;;;5018340;28;20511;-79
2023/02/22 12:07:30;;;;;;;23.03;10.87;;;24.00;51.40;;;;;;5019781;28;20499;-79
2023/02/22 12:10:05;;;;;;;10.63;9.50;;;24.10;49.10;;;;;;5022241;28;20438;-79
2023/02/22 12:12:41;;;;;;;10.70;9.53;;;24.20;47.10;;;;;;5021836;28;20436;-79
2023/02/22 12:15:14;;;;;;;12.00;8.50;;;24.20;45.40;;;;;;5022382;28;20442;-79
2023/02/22 12:17:48;;;;;;;11.07;9.70;;;24.20;46.10;;;;;;5021577;28;20541;-79
2023/02/22 12:20:23;;;;;;;10.73;8.97;;;24.30;45.00;;;;;;5021828;28;20420;-79
2023/02/22 12:23:00;;;;;;;10.30;9.30;;;24.30;44.50;;;;;;5021208;28;20931;-79
2023/02/22 12:25:31;;;;;;;11.90;9.73;;;24.20;44.50;;;;;;5022942;28;20468;-79
2023/02/22 12:28:04;;;;;;;10.70;9.60;;;24.20;44.60;;;;;;5023518;28;20471;-79
2023/02/22 12:30:35;;;;;;;11.23;9.87;;;24.20;45.20;;;;;;5026202;28;20443;-79
2023/02/22 12:33:06;;;;;;;10.93;8.87;;;24.20;45.80;;;;;;5028324;28;20436;-79
2023/02/22 12:35:36;;;;;;;12.80;9.17;;;24.10;45.20;;;;;;5028001;28;20446;-80
2023/02/22 12:38:11;;;;;;;10.07;7.83;;;24.10;44.50;;;;;;5027433;28;20447;-80
2023/02/22 12:40:44;;;;;;;11.50;8.83;;;24.00;45.40;;;;;;5025884;28;20477;-80
2023/02/22 12:43:19;;;;;;;10.93;8.77;;;24.00;44.70;;;;;;5026726;28;20439;-79
2023/02/22 12:45:52;;;;;;;10.37;9.00;;;24.00;45.00;;;;;;5026712;28;20479;-80
2023/02/22 12:48:33;;;;;;;11.50;8.70;;;23.90;43.80;;;;;;5026652;28;20803;-79
2023/02/22 12:51:07;;;;;;;9.20;8.23;;;23.80;44.10;;;;;;5025770;28;20438;-79